Map

Track Data

SID SEASON NUMBER BASIN SUBBASIN NAME ISO_TIME NATURE LAT LON WMO_WIND WMO_PRES WMO_AGENCY TRACK_TYPE DIST2LAND LANDFALL IFLAG USA_AGENCY USA_ATCF_ID USA_LAT USA_LON USA_RECORD USA_STATUS USA_WIND USA_PRES USA_SSHS USA_R34_NE USA_R34_SE USA_R34_SW USA_R34_NW USA_R50_NE USA_R50_SE USA_R50_SW USA_R50_NW USA_R64_NE USA_R64_SE USA_R64_SW USA_R64_NW USA_POCI USA_ROCI USA_RMW USA_EYE TOKYO_LAT TOKYO_LON TOKYO_GRADE TOKYO_WIND TOKYO_PRES TOKYO_R50_DIR TOKYO_R50_LONG TOKYO_R50_SHORT TOKYO_R30_DIR TOKYO_R30_LONG TOKYO_R30_SHORT TOKYO_LAND CMA_LAT CMA_LON CMA_CAT CMA_WIND CMA_PRES HKO_LAT HKO_LON HKO_CAT HKO_WIND HKO_PRES NEWDELHI_LAT NEWDELHI_LON NEWDELHI_GRADE NEWDELHI_WIND NEWDELHI_PRES NEWDELHI_CI NEWDELHI_DP NEWDELHI_POCI REUNION_LAT REUNION_LON REUNION_TYPE REUNION_WIND REUNION_PRES REUNION_TNUM REUNION_CI REUNION_RMW REUNION_R34_NE REUNION_R34_SE REUNION_R34_SW REUNION_R34_NW REUNION_R50_NE REUNION_R50_SE REUNION_R50_SW REUNION_R50_NW REUNION_R64_NE REUNION_R64_SE REUNION_R64_SW REUNION_R64_NW BOM_LAT BOM_LON BOM_TYPE BOM_WIND BOM_PRES BOM_TNUM BOM_CI BOM_RMW BOM_R34_NE BOM_R34_SE BOM_R34_SW BOM_R34_NW BOM_R50_NE BOM_R50_SE BOM_R50_SW BOM_R50_NW BOM_R64_NE BOM_R64_SE BOM_R64_SW BOM_R64_NW BOM_ROCI BOM_POCI BOM_EYE BOM_POS_METHOD BOM_PRES_METHOD NADI_LAT NADI_LON NADI_CAT NADI_WIND NADI_PRES WELLINGTON_LAT WELLINGTON_LON WELLINGTON_WIND WELLINGTON_PRES DS824_LAT DS824_LON DS824_STAGE DS824_WIND DS824_PRES TD9636_LAT TD9636_LON TD9636_STAGE TD9636_WIND TD9636_PRES TD9635_LAT TD9635_LON TD9635_WIND TD9635_PRES TD9635_ROCI NEUMANN_LAT NEUMANN_LON NEUMANN_CLASS NEUMANN_WIND NEUMANN_PRES MLC_LAT MLC_LON MLC_CLASS MLC_WIND MLC_PRES USA_GUST BOM_GUST BOM_GUST_PER REUNION_GUST REUNION_GUST_PER USA_SEAHGT USA_SEARAD_NE USA_SEARAD_SE USA_SEARAD_SW USA_SEARAD_NW STORM_SPEED STORM_DIR
1971225N26277 1971 93 NA GM NOT_NAMED 1971-08-12 12:00:00 TS 26.0000 -83.5000 20 hurdat_atl main 149 126 O_____________ hurdat_atl AL071971 26.0000 -83.5000 TD 20 -1 4 63
1971225N26277 1971 93 NA GM NOT_NAMED 1971-08-12 15:00:00 TS 26.0901 -83.3000 main 126 104 P_____________ AL071971 26.0901 -83.3000 TD 22 -1 4 61
1971225N26277 1971 93 NA GM NOT_NAMED 1971-08-12 18:00:00 TS 26.2000 -83.1000 25 hurdat_atl main 104 81 O_____________ hurdat_atl AL071971 26.2000 -83.1000 TD 25 -1 4 55
1971225N26277 1971 93 NA GM NOT_NAMED 1971-08-12 21:00:00 TS 26.3425 -82.9000 main 81 51 P_____________ AL071971 26.3425 -82.9000 TD 25 -1 5 50
1971225N26277 1971 93 NA GM NOT_NAMED 1971-08-13 00:00:00 TS 26.5000 -82.7000 25 hurdat_atl main 51 29 O_____________ hurdat_atl AL071971 26.5000 -82.7000 TD 25 -1 5 49
1971225N26277 1971 93 NA GM NOT_NAMED 1971-08-13 03:00:00 TS 26.6575 -82.4925 main 22 0 P_____________ AL071971 26.6575 -82.4925 TD 25 -1 5 50
1971225N26277 1971 93 NA GM NOT_NAMED 1971-08-13 06:00:00 TS 26.8000 -82.3000 25 hurdat_atl main 0 0 O_____________ hurdat_atl AL071971 26.8000 -82.3000 TD 25 -1 4 49
1971225N26277 1971 93 NA GM NOT_NAMED 1971-08-13 09:00:00 TS 26.8998 -82.1798 main 9 0 P_____________ AL071971 26.8998 -82.1798 TD 22 -1 3 53
1971225N26277 1971 93 NA NA NOT_NAMED 1971-08-13 12:00:00 TS 27.0000 -82.0000 20 hurdat_atl main 0 0 O_____________ hurdat_atl AL071971 27.0000 -82.0000 TD 20 -1 6 66
1971225N26277 1971 93 NA NA NOT_NAMED 1971-08-13 15:00:00 TS 27.1505 -81.5405 main 0 0 P_____________ AL071971 27.1505 -81.5405 TD 20 -1 8 67
1971225N26277 1971 93 NA NA NOT_NAMED 1971-08-13 18:00:00 TS 27.3000 -81.2000 20 hurdat_atl main 0 0 O_____________ hurdat_atl AL071971 27.3000 -81.2000 TD 20 -1 3 27
1971225N26277 1971 93 NA NA NOT_NAMED 1971-08-13 21:00:00 TS 27.4002 -81.3971 main 0 0 P_____________ AL071971 27.4002 -81.3971 TD 20 -1 5 294
1971225N26277 1971 93 NA NA NOT_NAMED 1971-08-14 00:00:00 TS 27.5000 -81.7000 20 hurdat_atl main 0 0 O_____________ hurdat_atl AL071971 27.5000 -81.7000 TD 20 -1 4 313
1971225N26277 1971 93 NA NA NOT_NAMED 1971-08-14 03:00:00 TS 27.6499 -81.6951 main 0 0 P_____________ AL071971 27.6499 -81.6951 TD 20 -1 3 16
1971225N26277 1971 93 NA NA NOT_NAMED 1971-08-14 06:00:00 TS 27.8000 -81.6000 20 hurdat_atl main 0 0 O_____________ hurdat_atl AL071971 27.8000 -81.6000 TD 20 -1 3 30
1971225N26277 1971 93 NA NA NOT_NAMED 1971-08-14 09:00:00 TS 27.9150 -81.5200 main 0 0 P_____________ AL071971 27.9150 -81.5200 TD 20 -1 2 25
1971225N26277 1971 93 NA NA NOT_NAMED 1971-08-14 12:00:00 TS 28.0000 -81.5000 20 hurdat_atl main 0 0 O_____________ hurdat_atl AL071971 28.0000 -81.5000 TD 20 -1 2 331
1971225N26277 1971 93 NA NA NOT_NAMED 1971-08-14 15:00:00 TS 28.0575 -81.6125 main 0 0 P_____________ AL071971 28.0575 -81.6125 TD 20 -1 3 291
1971225N26277 1971 93 NA NA NOT_NAMED 1971-08-14 18:00:00 TS 28.1000 -81.8000 20 hurdat_atl main 0 0 O_____________ hurdat_atl AL071971 28.1000 -81.8000 TD 20 -1 3 285
1971225N26277 1971 93 NA NA NOT_NAMED 1971-08-14 21:00:00 TS 28.1500 -81.9925 main 0 0 P_____________ AL071971 28.1500 -81.9925 TD 20 -1 4 286
1971225N26277 1971 93 NA NA NOT_NAMED 1971-08-15 00:00:00 TS 28.2000 -82.2000 20 hurdat_atl main 0 0 O_____________ hurdat_atl AL071971 28.2000 -82.2000 TD 20 -1 4 285
1971225N26277 1971 93 NA NA NOT_NAMED 1971-08-15 03:00:00 TS 28.2425 -82.4001 main 0 0 P_____________ AL071971 28.2425 -82.4001 TD 22 -1 4 286
1971225N26277 1971 93 NA NA NOT_NAMED 1971-08-15 06:00:00 TS 28.3000 -82.6000 25 hurdat_atl main 0 0 O_____________ hurdat_atl AL071971 28.3000 -82.6000 TD 25 -1 4 290
1971225N26277 1971 93 NA GM NOT_NAMED 1971-08-15 09:00:00 TS 28.3775 -82.8150 main 14 14 P_____________ AL071971 28.3775 -82.8150 TD 25 -1 4 300
1971225N26277 1971 93 NA GM NOT_NAMED 1971-08-15 12:00:00 TS 28.5000 -83.0000 25 hurdat_atl main 36 36 O_____________ hurdat_atl AL071971 28.5000 -83.0000 TD 25 -1 4 321
1971225N26277 1971 93 NA GM NOT_NAMED 1971-08-15 15:00:00 TS 28.6924 -83.1076 main 44 34 P_____________ AL071971 28.6924 -83.1076 TD 25 -1 4 336
1971225N26277 1971 93 NA GM NOT_NAMED 1971-08-15 18:00:00 TS 28.9000 -83.2000 25 hurdat_atl main 34 24 O_____________ hurdat_atl AL071971 28.9000 -83.2000 TD 25 -1 4 330
1971225N26277 1971 93 NA GM NOT_NAMED 1971-08-15 21:00:00 TS 29.0500 -83.3426 main 22 22 P_____________ AL071971 29.0500 -83.3426 TD 25 -1 4 319
1971225N26277 1971 93 NA GM NOT_NAMED 1971-08-16 00:00:00 TS 29.2000 -83.5000 25 hurdat_atl main 34 22 O_____________ hurdat_atl AL071971 29.2000 -83.5000 TD 25 -1 4 321
1971225N26277 1971 93 NA GM NOT_NAMED 1971-08-16 03:00:00 TS 29.3925 -83.6575 main 31 28 P_____________ AL071971 29.3925 -83.6575 TD 25 -1 5 327
1971225N26277 1971 93 NA GM NOT_NAMED 1971-08-16 06:00:00 TS 29.6000 -83.8000 25 hurdat_atl main 29 22 O_____________ hurdat_atl AL071971 29.6000 -83.8000 TD 25 -1 5 332
1971225N26277 1971 93 NA GM NOT_NAMED 1971-08-16 09:00:00 TS 29.8025 -83.9100 main 22 11 P_____________ AL071971 29.8025 -83.9100 TD -1 4 337
1971225N26277 1971 93 NA GM NOT_NAMED 1971-08-16 12:00:00 TS 30.0000 -84.0000 hurdat_atl main 11 O_____________ hurdat_atl AL071971 30.0000 -84.0000 TD -1 4 338

About IBTrACS Database

This database is a web-friendly format of International Best Track Archive for Climate Stewardship (IBTrACS), a global best track data archive curated by NOAA dating back to 1842.

Updated: 2021-12-06